sensor_id;sensor_type;location;lat;lon;timestamp;pressure;altitude;pressure_sealevel;temperature;humidity
66176;BME280;52977;44.816;20.538;2024-03-08T00:00:20;99981.88;;;7.54;99.55
66176;BME280;52977;44.816;20.538;2024-03-08T00:02:47;99984.75;;;7.44;99.27
66176;BME280;52977;44.816;20.538;2024-03-08T00:05:14;99989.91;;;7.45;100.00
66176;BME280;52977;44.816;20.538;2024-03-08T00:07:42;99983.81;;;7.53;99.65
66176;BME280;52977;44.816;20.538;2024-03-08T00:10:10;99978.88;;;7.56;99.50
66176;BME280;52977;44.816;20.538;2024-03-08T00:12:41;99984.22;;;7.42;100.00
66176;BME280;52977;44.816;20.538;2024-03-08T00:15:12;99978.63;;;7.52;100.00
66176;BME280;52977;44.816;20.538;2024-03-08T00:17:41;99993.56;;;7.55;99.65
66176;BME280;52977;44.816;20.538;2024-03-08T00:20:07;99983.34;;;7.46;99.66
66176;BME280;52977;44.816;20.538;2024-03-08T00:22:53;99985.97;;;7.32;100.00
66176;BME280;52977;44.816;20.538;2024-03-08T00:25:19;99996.19;;;7.41;100.00
66176;BME280;52977;44.816;20.538;2024-03-08T00:27:46;99987.38;;;7.49;100.00
66176;BME280;52977;44.816;20.538;2024-03-08T00:30:15;99992.22;;;7.52;100.00
66176;BME280;52977;44.816;20.538;2024-03-08T00:32:46;99992.81;;;7.49;100.00
66176;BME280;52977;44.816;20.538;2024-03-08T00:35:12;99990.63;;;7.51;100.00
66176;BME280;52977;44.816;20.538;2024-03-08T00:37:44;99984.47;;;7.45;100.00
66176;BME280;52977;44.816;20.538;2024-03-08T00:40:14;99984.97;;;7.47;100.00
66176;BME280;52977;44.816;20.538;2024-03-08T00:42:40;99981.44;;;7.47;100.00
66176;BME280;52977;44.816;20.538;2024-03-08T00:45:07;99980.13;;;7.44;100.00
66176;BME280;52977;44.816;20.538;2024-03-08T00:47:33;99986.88;;;7.47;100.00
66176;BME280;52977;44.816;20.538;2024-03-08T00:50:00;99985.63;;;7.39;100.00
66176;BME280;52977;44.816;20.538;2024-03-08T00:52:30;99980.00;;;7.35;100.00
66176;BME280;52977;44.816;20.538;2024-03-08T00:54:56;99971.84;;;7.35;100.00
66176;BME280;52977;44.816;20.538;2024-03-08T00:57:23;99980.78;;;7.36;100.00
66176;BME280;52977;44.816;20.538;2024-03-08T00:59:49;99972.03;;;7.39;100.00
66176;BME280;52977;44.816;20.538;2024-03-08T01:02:16;99976.75;;;7.33;100.00
66176;BME280;52977;44.816;20.538;2024-03-08T01:04:45;99970.66;;;7.42;100.00
66176;BME280;52977;44.816;20.538;2024-03-08T01:07:13;99978.81;;;7.42;100.00
66176;BME280;52977;44.816;20.538;2024-03-08T01:09:40;99972.03;;;7.39;100.00
66176;BME280;52977;44.816;20.538;2024-03-08T01:12:06;99969.13;;;7.35;100.00
66176;BME280;52977;44.816;20.538;2024-03-08T01:14:33;99978.56;;;7.38;100.00
66176;BME280;52977;44.816;20.538;2024-03-08T01:17:00;99974.47;;;7.41;100.00
66176;BME280;52977;44.816;20.538;2024-03-08T01:19:26;99975.81;;;7.24;100.00
66176;BME280;52977;44.816;20.538;2024-03-08T01:21:53;99979.38;;;7.19;100.00
66176;BME280;52977;44.816;20.538;2024-03-08T01:24:21;99978.97;;;7.31;100.00
66176;BME280;52977;44.816;20.538;2024-03-08T01:26:48;99978.44;;;7.29;100.00
66176;BME280;52977;44.816;20.538;2024-03-08T01:29:14;99980.34;;;7.29;100.00
66176;BME280;52977;44.816;20.538;2024-03-08T01:31:41;99980.06;;;7.30;100.00
66176;BME280;52977;44.816;20.538;2024-03-08T01:34:08;99976.75;;;7.33;100.00
66176;BME280;52977;44.816;20.538;2024-03-08T01:36:33;99977.84;;;7.32;100.00
66176;BME280;52977;44.816;20.538;2024-03-08T01:38:59;99981.75;;;7.26;100.00
66176;BME280;52977;44.816;20.538;2024-03-08T01:41:25;99978.97;;;7.31;100.00
66176;BME280;52977;44.816;20.538;2024-03-08T01:43:53;99984.91;;;7.33;100.00
66176;BME280;52977;44.816;20.538;2024-03-08T01:46:21;99984.00;;;7.38;100.00
66176;BME280;52977;44.816;20.538;2024-03-08T01:48:51;99985.47;;;7.30;100.00
66176;BME280;52977;44.816;20.538;2024-03-08T01:51:18;99978.44;;;7.29;100.00
66176;BME280;52977;44.816;20.538;2024-03-08T01:53:46;99983.06;;;7.29;100.00
66176;BME280;52977;44.816;20.538;2024-03-08T01:56:13;99979.25;;;7.30;100.00
66176;BME280;52977;44.816;20.538;2024-03-08T01:58:43;99986.06;;;7.27;100.00
66176;BME280;52977;44.816;20.538;2024-03-08T02:01:11;99982.25;;;7.28;100.00
66176;BME280;52977;44.816;20.538;2024-03-08T02:03:38;99985.19;;;7.32;100.00
66176;BME280;52977;44.816;20.538;2024-03-08T02:06:05;99987.59;;;7.33;100.00
66176;BME280;52977;44.816;20.538;2024-03-08T02:08:34;99987.59;;;7.33;100.00
66176;BME280;52977;44.816;20.538;2024-03-08T02:11:01;99981.75;;;7.26;100.00
66176;BME280;52977;44.816;20.538;2024-03-08T02:13:28;99989.28;;;7.29;100.00
66176;BME280;52977;44.816;20.538;2024-03-08T02:15:58;99984.41;;;7.31;100.00
66176;BME280;52977;44.816;20.538;2024-03-08T02:18:28;99985.16;;;7.13;100.00
66176;BME280;52977;44.816;20.538;2024-03-08T02:20:56;99982.84;;;7.25;100.00
66176;BME280;52977;44.816;20.538;2024-03-08T02:23:23;99987.97;;;7.27;100.00
66176;BME280;52977;44.816;20.538;2024-03-08T02:25:54;99985.63;;;7.20;100.00
66176;BME280;52977;44.816;20.538;2024-03-08T02:28:23;99987.47;;;7.25;100.00
66176;BME280;52977;44.816;20.538;2024-03-08T02:30:51;99987.81;;;7.18;100.00
66176;BME280;52977;44.816;20.538;2024-03-08T02:33:23;99989.16;;;7.21;100.00
66176;BME280;52977;44.816;20.538;2024-03-08T02:35:49;99981.50;;;7.23;100.00
66176;BME280;52977;44.816;20.538;2024-03-08T02:38:18;99985.84;;;7.24;100.00
66176;BME280;52977;44.816;20.538;2024-03-08T02:40:46;99981.25;;;7.24;100.00
66176;BME280;52977;44.816;20.538;2024-03-08T02:43:14;99985.03;;;7.23;100.00
66176;BME280;52977;44.816;20.538;2024-03-08T02:45:41;99985.34;;;7.22;100.00
66176;BME280;52977;44.816;20.538;2024-03-08T02:48:08;99981.31;;;7.19;100.00
66176;BME280;52977;44.816;20.538;2024-03-08T02:50:35;99976.38;;;7.21;100.00
66176;BME280;52977;44.816;20.538;2024-03-08T02:53:03;99989.94;;;7.21;100.00
66176;BME280;52977;44.816;20.538;2024-03-08T02:55:30;99986.44;;;7.21;100.00
66176;BME280;52977;44.816;20.538;2024-03-08T02:57:57;99989.66;;;7.23;100.00
66176;BME280;52977;44.816;20.538;2024-03-08T03:00:23;99984.81;;;7.19;100.00
66176;BME280;52977;44.816;20.538;2024-03-08T03:02:50;99986.13;;;7.22;100.00
66176;BME280;52977;44.816;20.538;2024-03-08T03:05:20;99987.03;;;7.17;100.00
66176;BME280;52977;44.816;20.538;2024-03-08T03:07:47;99990.25;;;7.19;100.00
66176;BME280;52977;44.816;20.538;2024-03-08T03:10:16;99985.09;;;7.18;100.00
66176;BME280;52977;44.816;20.538;2024-03-08T03:12:44;99996.91;;;7.08;100.00
66176;BME280;52977;44.816;20.538;2024-03-08T03:15:12;99994.84;;;7.00;100.00
66176;BME280;52977;44.816;20.538;2024-03-08T03:17:39;99987.38;;;7.11;100.00
66176;BME280;52977;44.816;20.538;2024-03-08T03:20:07;99993.25;;;7.18;100.00
66176;BME280;52977;44.816;20.538;2024-03-08T03:22:39;99991.88;;;7.21;100.00
66176;BME280;52977;44.816;20.538;2024-03-08T03:25:08;99990.84;;;7.16;100.00
66176;BME280;52977;44.816;20.538;2024-03-08T03:27:54;99988.63;;;7.18;100.00
66176;BME280;52977;44.816;20.538;2024-03-08T03:30:23;99990.84;;;7.16;100.00
66176;BME280;52977;44.816;20.538;2024-03-08T03:32:53;99987.81;;;7.18;100.00
66176;BME280;52977;44.816;20.538;2024-03-08T03:35:21;99993.25;;;7.18;100.00
66176;BME280;52977;44.816;20.538;2024-03-08T03:37:48;100001.16;;;7.14;100.00
66176;BME280;52977;44.816;20.538;2024-03-08T03:40:30;99998.44;;;7.14;100.00
66176;BME280;52977;44.816;20.538;2024-03-08T03:42:57;100003.88;;;7.14;100.00
66176;BME280;52977;44.816;20.538;2024-03-08T03:45:24;99997.28;;;7.21;100.00
66176;BME280;52977;44.816;20.538;2024-03-08T03:47:51;99998.38;;;7.19;100.00
66176;BME280;52977;44.816;20.538;2024-03-08T03:50:37;100009.59;;;7.13;100.00
66176;BME280;52977;44.816;20.538;2024-03-08T03:53:04;100009.84;;;7.16;100.00
66176;BME280;52977;44.816;20.538;2024-03-08T03:55:34;100008.94;;;7.21;100.00
66176;BME280;52977;44.816;20.538;2024-03-08T03:58:03;100006.59;;;7.14;100.00
66176;BME280;52977;44.816;20.538;2024-03-08T04:00:29;100006.31;;;7.16;100.00
66176;BME280;52977;44.816;20.538;2024-03-08T04:02:56;100004.84;;;7.24;100.00
66176;BME280;52977;44.816;20.538;2024-03-08T04:05:25;100007.84;;;7.22;100.00
66176;BME280;52977;44.816;20.538;2024-03-08T04:07:52;100010.56;;;7.22;100.00
66176;BME280;52977;44.816;20.538;2024-03-08T04:10:18;100002.72;;;7.21;100.00
66176;BME280;52977;44.816;20.538;2024-03-08T04:12:46;100007.63;;;7.18;100.00
66176;BME280;52977;44.816;20.538;2024-03-08T04:15:12;100013.28;;;7.22;100.00
66176;BME280;52977;44.816;20.538;2024-03-08T04:17:38;100012.78;;;7.20;100.00
66176;BME280;52977;44.816;20.538;2024-03-08T04:20:05;100009.78;;;7.22;100.00
66176;BME280;52977;44.816;20.538;2024-03-08T04:22:36;100007.41;;;7.15;100.00
66176;BME280;52977;44.816;20.538;2024-03-08T04:25:04;100014.38;;;7.21;100.00
66176;BME280;52977;44.816;20.538;2024-03-08T04:27:32;100013.22;;;7.27;100.00
66176;BME280;52977;44.816;20.538;2024-03-08T04:29:59;100008.09;;;7.26;100.00
66176;BME280;52977;44.816;20.538;2024-03-08T04:32:26;100012.19;;;7.23;99.78
66176;BME280;52977;44.816;20.538;2024-03-08T04:34:54;100007.56;;;7.24;99.55
66176;BME280;52977;44.816;20.538;2024-03-08T04:37:20;100009.41;;;7.28;98.66
66176;BME280;52977;44.816;20.538;2024-03-08T04:39:51;100020.25;;;7.28;98.75
66176;BME280;52977;44.816;20.538;2024-03-08T04:42:17;100011.38;;;7.23;98.79
66176;BME280;52977;44.816;20.538;2024-03-08T04:44:44;100016.59;;;7.19;99.32
66176;BME280;52977;44.816;20.538;2024-03-08T04:47:11;100016.31;;;7.21;98.52
66176;BME280;52977;44.816;20.538;2024-03-08T04:49:37;100009.03;;;7.16;98.22
66176;BME280;52977;44.816;20.538;2024-03-08T04:52:05;100012.31;;;7.13;98.07
66176;BME280;52977;44.816;20.538;2024-03-08T04:54:31;100019.53;;;7.23;97.90
66176;BME280;52977;44.816;20.538;2024-03-08T04:56:58;100019.38;;;7.14;99.14
66176;BME280;52977;44.816;20.538;2024-03-08T04:59:28;100023.06;;;7.23;98.08
66176;BME280;52977;44.816;20.538;2024-03-08T05:01:54;100019.25;;;7.24;97.71
66176;BME280;52977;44.816;20.538;2024-03-08T05:04:20;100025.19;;;7.26;97.44
66176;BME280;52977;44.816;20.538;2024-03-08T05:06:46;100024.69;;;7.24;96.17
66176;BME280;52977;44.816;20.538;2024-03-08T05:09:13;100025.53;;;7.19;97.42
66176;BME280;52977;44.816;20.538;2024-03-08T05:12:01;100026.94;;;7.17;97.46
66176;BME280;52977;44.816;20.538;2024-03-08T05:14:28;100029.28;;;7.24;98.26
66176;BME280;52977;44.816;20.538;2024-03-08T05:16:54;100029.53;;;7.27;97.86
66176;BME280;52977;44.816;20.538;2024-03-08T05:19:21;100030.63;;;7.26;98.13
66176;BME280;52977;44.816;20.538;2024-03-08T05:21:49;100035.53;;;7.24;97.71
66176;BME280;52977;44.816;20.538;2024-03-08T05:24:17;100031.72;;;7.25;97.74
66176;BME280;52977;44.816;20.538;2024-03-08T05:26:44;100029.13;;;7.15;98.13
66176;BME280;52977;44.816;20.538;2024-03-08T05:29:11;100035.44;;;7.10;98.58
66176;BME280;52977;44.816;20.538;2024-03-08T05:31:50;100036.09;;;7.21;98.24
66176;BME280;52977;44.816;20.538;2024-03-08T05:34:18;100041.19;;;7.28;98.29
66176;BME280;52977;44.816;20.538;2024-03-08T05:36:48;100039.34;;;7.23;97.28
66176;BME280;52977;44.816;20.538;2024-03-08T05:39:19;100041.47;;;7.26;97.54
66176;BME280;52977;44.816;20.538;2024-03-08T05:42:05;100045.28;;;7.25;97.46
66176;BME280;52977;44.816;20.538;2024-03-08T05:44:30;100054.25;;;7.26;98.21
66176;BME280;52977;44.816;20.538;2024-03-08T05:46:57;100048.13;;;7.15;97.12
66176;BME280;52977;44.816;20.538;2024-03-08T05:49:24;100058.28;;;7.28;97.71
66176;BME280;52977;44.816;20.538;2024-03-08T05:51:51;100057.47;;;7.28;97.44
66176;BME280;52977;44.816;20.538;2024-03-08T05:54:17;100066.41;;;7.09;98.38
66176;BME280;52977;44.816;20.538;2024-03-08T05:56:43;100055.66;;;7.23;98.09
66176;BME280;52977;44.816;20.538;2024-03-08T05:59:11;100067.00;;;7.25;98.14
66176;BME280;52977;44.816;20.538;2024-03-08T06:01:37;100059.41;;;7.27;97.62
66176;BME280;52977;44.816;20.538;2024-03-08T06:04:06;100061.06;;;7.23;98.33
66176;BME280;52977;44.816;20.538;2024-03-08T06:06:32;100069.81;;;7.20;98.21
66176;BME280;52977;44.816;20.538;2024-03-08T06:08:59;100068.97;;;7.19;97.70
66176;BME280;52977;44.816;20.538;2024-03-08T06:11:26;100065.56;;;7.33;96.86
66176;BME280;52977;44.816;20.538;2024-03-08T06:13:57;100069.63;;;7.35;97.05
66176;BME280;52977;44.816;20.538;2024-03-08T06:16:26;100075.25;;;7.39;96.24
66176;BME280;52977;44.816;20.538;2024-03-08T06:18:58;100075.53;;;7.38;96.53
66176;BME280;52977;44.816;20.538;2024-03-08T06:21:24;100074.50;;;7.33;96.18
66176;BME280;52977;44.816;20.538;2024-03-08T06:23:54;100068.50;;;7.36;95.29
66176;BME280;52977;44.816;20.538;2024-03-08T06:26:26;100074.97;;;7.41;95.41
66176;BME280;52977;44.816;20.538;2024-03-08T06:29:12;100078.78;;;7.40;95.33
66176;BME280;52977;44.816;20.538;2024-03-08T06:31:39;100076.59;;;7.42;94.73
66176;BME280;52977;44.816;20.538;2024-03-08T06:34:05;100074.66;;;7.42;94.72
66176;BME280;52977;44.816;20.538;2024-03-08T06:36:34;100077.16;;;7.39;94.28
66176;BME280;52977;44.816;20.538;2024-03-08T06:39:01;100080.94;;;7.43;94.78
66176;BME280;52977;44.816;20.538;2024-03-08T06:41:27;100085.75;;;7.46;94.02
66176;BME280;52977;44.816;20.538;2024-03-08T06:43:54;100087.16;;;7.43;94.82
66176;BME280;52977;44.816;20.538;2024-03-08T06:46:24;100088.13;;;7.52;96.11
66176;BME280;52977;44.816;20.538;2024-03-08T06:48:50;100089.47;;;7.55;96.22
66176;BME280;52977;44.816;20.538;2024-03-08T06:51:16;100093.50;;;7.58;95.64
66176;BME280;52977;44.816;20.538;2024-03-08T06:53:42;100089.06;;;7.62;95.00
66176;BME280;52977;44.816;20.538;2024-03-08T06:56:09;100092.47;;;7.53;96.34
66176;BME280;52977;44.816;20.538;2024-03-08T06:58:35;100105.16;;;7.58;96.73
66176;BME280;52977;44.816;20.538;2024-03-08T07:01:02;100090.09;;;7.04;100.00
66176;BME280;52977;44.816;20.538;2024-03-08T07:03:30;100091.91;;;7.32;99.74
66176;BME280;52977;44.816;20.538;2024-03-08T07:05:56;100092.00;;;7.46;98.42
66176;BME280;52977;44.816;20.538;2024-03-08T07:08:24;100089.16;;;7.57;97.06
66176;BME280;52977;44.816;20.538;2024-03-08T07:10:54;100093.41;;;7.63;97.09
66176;BME280;52977;44.816;20.538;2024-03-08T07:13:20;100090.09;;;7.66;96.33
66176;BME280;52977;44.816;20.538;2024-03-08T07:15:46;100103.94;;;7.69;94.76
66176;BME280;52977;44.816;20.538;2024-03-08T07:18:13;100100.31;;;7.74;94.98
66176;BME280;52977;44.816;20.538;2024-03-08T07:20:41;100100.03;;;7.76;94.83
66176;BME280;52977;44.816;20.538;2024-03-08T07:23:09;100097.84;;;7.78;95.20
66176;BME280;52977;44.816;20.538;2024-03-08T07:25:36;100090.78;;;7.77;94.65
66176;BME280;52977;44.816;20.538;2024-03-08T07:28:05;100102.75;;;7.76;94.82
66176;BME280;52977;44.816;20.538;2024-03-08T07:30:32;100105.41;;;7.81;95.21
66176;BME280;52977;44.816;20.538;2024-03-08T07:33:11;100104.50;;;7.66;96.20
66176;BME280;52977;44.816;20.538;2024-03-08T07:35:38;100106.28;;;7.76;95.58
66176;BME280;52977;44.816;20.538;2024-03-08T07:38:05;100101.31;;;7.40;97.65
66176;BME280;52977;44.816;20.538;2024-03-08T07:40:36;100106.50;;;7.61;96.53
66176;BME280;52977;44.816;20.538;2024-03-08T07:43:03;100102.84;;;7.70;95.51
66176;BME280;52977;44.816;20.538;2024-03-08T07:45:30;100106.00;;;7.78;94.66
66176;BME280;52977;44.816;20.538;2024-03-08T07:47:56;100102.91;;;7.84;94.12
66176;BME280;52977;44.816;20.538;2024-03-08T07:50:23;100103.13;;;7.88;94.60
66176;BME280;52977;44.816;20.538;2024-03-08T07:52:49;100108.00;;;7.91;94.35
66176;BME280;52977;44.816;20.538;2024-03-08T07:55:16;100107.09;;;7.96;93.56
66176;BME280;52977;44.816;20.538;2024-03-08T07:57:42;100106.38;;;7.90;93.40
66176;BME280;52977;44.816;20.538;2024-03-08T08:00:09;100107.38;;;7.94;93.49
66176;BME280;52977;44.816;20.538;2024-03-08T08:02:37;100112.84;;;7.94;93.25
66176;BME280;52977;44.816;20.538;2024-03-08T08:05:03;100119.13;;;7.90;93.82
66176;BME280;52977;44.816;20.538;2024-03-08T08:07:29;100123.53;;;7.85;93.81
66176;BME280;52977;44.816;20.538;2024-03-08T08:09:55;100120.44;;;7.92;93.53
66176;BME280;52977;44.816;20.538;2024-03-08T08:12:22;100122.66;;;7.90;92.16
66176;BME280;52977;44.816;20.538;2024-03-08T08:14:49;100120.09;;;7.99;95.31
66176;BME280;52977;44.816;20.538;2024-03-08T08:17:16;100118.41;;;8.03;93.28
66176;BME280;52977;44.816;20.538;2024-03-08T08:19:43;100118.91;;;8.05;92.13
66176;BME280;52977;44.816;20.538;2024-03-08T08:22:15;100110.47;;;8.07;94.93
66176;BME280;52977;44.816;20.538;2024-03-08T08:24:42;100125.38;;;8.09;92.28
66176;BME280;52977;44.816;20.538;2024-03-08T08:27:14;100115.63;;;8.08;92.08
66176;BME280;52977;44.816;20.538;2024-03-08T08:29:41;100122.16;;;8.07;91.73
66176;BME280;52977;44.816;20.538;2024-03-08T08:32:09;100126.25;;;8.04;91.57
66176;BME280;52977;44.816;20.538;2024-03-08T08:34:36;100128.19;;;8.04;91.14
66176;BME280;52977;44.816;20.538;2024-03-08T08:37:03;100125.38;;;8.09;91.16
66176;BME280;52977;44.816;20.538;2024-03-08T08:39:29;100116.34;;;8.14;91.60
66176;BME280;52977;44.816;20.538;2024-03-08T08:41:56;100119.06;;;8.14;90.75
66176;BME280;52977;44.816;20.538;2024-03-08T08:44:23;100112.50;;;8.15;90.40
66176;BME280;52977;44.816;20.538;2024-03-08T08:46:51;100116.53;;;8.17;90.41
66176;BME280;52977;44.816;20.538;2024-03-08T08:49:18;100119.56;;;8.16;90.39
66176;BME280;52977;44.816;20.538;2024-03-08T08:51:49;100119.38;;;8.12;89.68
66176;BME280;52977;44.816;20.538;2024-03-08T08:54:16;100121.06;;;8.08;89.86
66176;BME280;52977;44.816;20.538;2024-03-08T08:56:43;100118.91;;;8.05;90.31
66176;BME280;52977;44.816;20.538;2024-03-08T08:59:10;100119.50;;;8.02;90.49
66176;BME280;52977;44.816;20.538;2024-03-08T09:01:56;100122.50;;;8.00;91.31
66176;BME280;52977;44.816;20.538;2024-03-08T09:04:23;100114.59;;;8.04;91.45
66176;BME280;52977;44.816;20.538;2024-03-08T09:06:49;100119.44;;;8.07;91.12
66176;BME280;52977;44.816;20.538;2024-03-08T09:09:16;100121.06;;;8.08;91.02
66176;BME280;52977;44.816;20.538;2024-03-08T09:11:43;100119.78;;;8.19;90.84
66176;BME280;52977;44.816;20.538;2024-03-08T09:14:09;100123.84;;;8.22;90.77
66176;BME280;52977;44.816;20.538;2024-03-08T09:16:37;100125.44;;;8.23;91.44
66176;BME280;52977;44.816;20.538;2024-03-08T09:19:03;100129.19;;;8.27;90.94
66176;BME280;52977;44.816;20.538;2024-03-08T09:21:31;100131.59;;;8.29;90.42
66176;BME280;52977;44.816;20.538;2024-03-08T09:23:58;100133.44;;;8.33;91.35
66176;BME280;52977;44.816;20.538;2024-03-08T09:26:24;100124.94;;;8.21;92.54
66176;BME280;52977;44.816;20.538;2024-03-08T09:28:51;100126.00;;;8.39;91.29
66176;BME280;52977;44.816;20.538;2024-03-08T09:31:18;100133.28;;;8.44;91.85
66176;BME280;52977;44.816;20.538;2024-03-08T09:33:44;100130.44;;;8.54;89.56
66176;BME280;52977;44.816;20.538;2024-03-08T09:36:11;100128.97;;;8.76;89.67
66176;BME280;52977;44.816;20.538;2024-03-08T09:38:39;100123.22;;;8.77;87.62
66176;BME280;52977;44.816;20.538;2024-03-08T09:41:06;100123.03;;;8.74;87.41
66176;BME280;52977;44.816;20.538;2024-03-08T09:43:33;100116.59;;;8.83;86.71
66176;BME280;52977;44.816;20.538;2024-03-08T09:45:59;100124.44;;;8.85;85.70
66176;BME280;52977;44.816;20.538;2024-03-08T09:48:26;100118.78;;;8.81;85.51
66176;BME280;52977;44.816;20.538;2024-03-08T09:50:53;100122.81;;;8.84;84.84
66176;BME280;52977;44.816;20.538;2024-03-08T09:53:21;100119.56;;;8.82;85.40
66176;BME280;52977;44.816;20.538;2024-03-08T09:55:48;100133.50;;;8.80;84.99
66176;BME280;52977;44.816;20.538;2024-03-08T09:58:16;100131.91;;;8.79;85.44
66176;BME280;52977;44.816;20.538;2024-03-08T10:00:55;100136.09;;;8.71;85.14
66176;BME280;52977;44.816;20.538;2024-03-08T10:03:24;100134.09;;;8.77;85.52
66176;BME280;52977;44.816;20.538;2024-03-08T10:06:09;100131.59;;;8.81;84.68
66176;BME280;52977;44.816;20.538;2024-03-08T10:08:37;100131.47;;;8.86;83.76
66176;BME280;52977;44.816;20.538;2024-03-08T10:11:03;100130.19;;;8.83;85.00
66176;BME280;52977;44.816;20.538;2024-03-08T10:13:31;100129.47;;;8.92;84.46
66176;BME280;52977;44.816;20.538;2024-03-08T10:15:58;100131.94;;;8.93;84.70
66176;BME280;52977;44.816;20.538;2024-03-08T10:18:26;100129.09;;;8.98;84.16
66176;BME280;52977;44.816;20.538;2024-03-08T10:21:05;100141.09;;;8.97;84.42
66176;BME280;52977;44.816;20.538;2024-03-08T10:23:33;100128.78;;;9.00;85.00
66176;BME280;52977;44.816;20.538;2024-03-08T10:26:20;100132.34;;;9.00;84.73
66176;BME280;52977;44.816;20.538;2024-03-08T10:28:48;100131.72;;;9.03;84.89
66176;BME280;52977;44.816;20.538;2024-03-08T10:31:16;100132.03;;;9.02;84.85
66176;BME280;52977;44.816;20.538;2024-03-08T10:33:42;100124.34;;;9.04;85.74
66176;BME280;52977;44.816;20.538;2024-03-08T10:36:11;100130.78;;;8.94;86.29
66176;BME280;52977;44.816;20.538;2024-03-08T10:38:40;100128.19;;;8.89;87.26
66176;BME280;52977;44.816;20.538;2024-03-08T10:41:07;100124.16;;;9.00;87.04
66176;BME280;52977;44.816;20.538;2024-03-08T10:46:53;100130.31;;;8.92;86.09
66176;BME280;52977;44.816;20.538;2024-03-08T10:49:54;100132.63;;;8.99;87.28
66176;BME280;52977;44.816;20.538;2024-03-08T10:52:21;100119.91;;;9.08;86.19
66176;BME280;52977;44.816;20.538;2024-03-08T10:55:08;100124.03;;;8.92;86.67
66176;BME280;52977;44.816;20.538;2024-03-08T10:57:38;100114.22;;;8.63;88.98
66176;BME280;52977;44.816;20.538;2024-03-08T11:00:10;100114.03;;;8.73;88.25
66176;BME280;52977;44.816;20.538;2024-03-08T11:02:38;100123.22;;;8.91;87.48
66176;BME280;52977;44.816;20.538;2024-03-08T11:05:10;100114.59;;;9.03;87.20
66176;BME280;52977;44.816;20.538;2024-03-08T11:07:56;100116.69;;;8.92;86.42
66176;BME280;52977;44.816;20.538;2024-03-08T11:10:22;100118.88;;;8.90;86.94
66176;BME280;52977;44.816;20.538;2024-03-08T11:12:50;100118.41;;;9.02;86.44
66176;BME280;52977;44.816;20.538;2024-03-08T11:15:17;100117.41;;;9.12;85.85
66176;BME280;52977;44.816;20.538;2024-03-08T11:17:48;100108.72;;;9.10;85.77
66176;BME280;52977;44.816;20.538;2024-03-08T11:20:19;100114.38;;;9.13;86.53
66176;BME280;52977;44.816;20.538;2024-03-08T11:22:59;100104.09;;;8.96;87.41
66176;BME280;52977;44.816;20.538;2024-03-08T11:25:45;100098.75;;;9.19;86.79
66176;BME280;52977;44.816;20.538;2024-03-08T11:28:25;100093.59;;;9.31;85.81
66176;BME280;52977;44.816;20.538;2024-03-08T11:33:28;100096.81;;;9.33;86.16
66176;BME280;52977;44.816;20.538;2024-03-08T11:36:07;100087.63;;;9.29;85.73
66176;BME280;52977;44.816;20.538;2024-03-08T11:38:46;100095.09;;;9.37;86.80
66176;BME280;52977;44.816;20.538;2024-03-08T11:41:20;100084.38;;;9.55;85.58
66176;BME280;52977;44.816;20.538;2024-03-08T11:43:47;100079.59;;;9.74;84.41
66176;BME280;52977;44.816;20.538;2024-03-08T11:46:15;100076.97;;;9.69;84.53
66176;BME280;52977;44.816;20.538;2024-03-08T11:48:44;100079.91;;;9.73;84.53
66176;BME280;52977;44.816;20.538;2024-03-08T11:51:12;100078.53;;;9.48;86.15
66176;BME280;52977;44.816;20.538;2024-03-08T11:53:39;100077.63;;;9.52;94.55
66176;BME280;52977;44.816;20.538;2024-03-08T11:56:11;100073.31;;;9.88;87.11
66176;BME280;52977;44.816;20.538;2024-03-08T11:58:39;100073.06;;;9.98;84.51
66176;BME280;52977;44.816;20.538;2024-03-08T12:01:10;100069.97;;;10.14;83.73
66176;BME280;52977;44.816;20.538;2024-03-08T12:03:40;100066.19;;;10.01;83.62
66176;BME280;52977;44.816;20.538;2024-03-08T12:06:09;100065.75;;;10.07;83.88
66176;BME280;52977;44.816;20.538;2024-03-08T12:08:36;100066.50;;;10.22;82.40
66176;BME280;52977;44.816;20.538;2024-03-08T12:11:06;100056.63;;;9.89;83.88
66176;BME280;52977;44.816;20.538;2024-03-08T12:13:34;100060.25;;;9.85;86.00
66176;BME280;52977;44.816;20.538;2024-03-08T12:16:04;100062.56;;;9.91;84.68
66176;BME280;52977;44.816;20.538;2024-03-08T12:18:36;100052.78;;;10.13;84.20
66176;BME280;52977;44.816;20.538;2024-03-08T12:21:13;100058.41;;;10.17;81.91
66176;BME280;52977;44.816;20.538;2024-03-08T12:23:44;100057.19;;;10.00;83.60
66176;BME280;52977;44.816;20.538;2024-03-08T12:26:15;100053.59;;;10.14;82.25
66176;BME280;52977;44.816;20.538;2024-03-08T12:28:42;100057.25;;;10.32;82.36
66176;BME280;52977;44.816;20.538;2024-03-08T12:31:13;100050.00;;;10.27;81.53
66176;BME280;52977;44.816;20.538;2024-03-08T12:33:50;100051.28;;;10.30;81.96
66176;BME280;52977;44.816;20.538;2024-03-08T12:36:17;100045.41;;;10.36;82.10
66176;BME280;52977;44.816;20.538;2024-03-08T12:38:48;100050.25;;;10.39;81.13
66176;BME280;52977;44.816;20.538;2024-03-08T12:41:15;100062.09;;;10.35;81.16
66176;BME280;52977;44.816;20.538;2024-03-08T12:43:44;100047.66;;;10.34;80.90
66176;BME280;52977;44.816;20.538;2024-03-08T12:46:19;100050.25;;;10.17;80.48
66176;BME280;52977;44.816;20.538;2024-03-08T12:48:48;100045.78;;;9.98;82.89
66176;BME280;52977;44.816;20.538;2024-03-08T12:51:15;100040.16;;;10.17;82.09
66176;BME280;52977;44.816;20.538;2024-03-08T12:53:42;100040.56;;;10.33;81.37
66176;BME280;52977;44.816;20.538;2024-03-08T12:56:30;100040.31;;;10.43;80.54
66176;BME280;52977;44.816;20.538;2024-03-08T12:58:57;100051.66;;;10.14;82.06
66176;BME280;52977;44.816;20.538;2024-03-08T13:01:23;100052.22;;;10.02;83.07